Detalii statie MIRACOM [00001CFF]

Toti senzorii

Date Temperatura solului [C]Precipitatii [mm]Voltaj baterie [mV]Leaf Wetness [Min]HC Air temperature [C]HC Relative humidity [%]Punctul de roua [C]
medieminmaxsumaultimatimpmedieminmaxmediemediemin
2018-10-13 15:00:00 17.6 17.4 17.8 0 7166 21.32 21.07 21.51 18.12 -4.1 -4.9
2018-10-13 16:00:00 16.9 16.4 17.7 0 7324 20.18 19.74 20.47 16.57 -6.2 -7.4
2018-10-13 17:00:00 15.9 15.5 16.5 0 7332 19.12 18.35 19.77 16.57 -7.2 -7.8
2018-10-13 18:00:00 15 14.6 15.5 0 7040 15.48 14.24 18.03 22.01 -6.3 -7.3
2018-10-13 19:00:00 14 13.5 14.5 0 7020 13.35 12.24 15.21 23.93 -7 -7.4
2018-10-13 20:00:00 13 12.6 13.5 0 7000 11.17 10.47 11.83 28.09 -6.7 -7.5
2018-10-13 21:00:00 12.2 12 12.7 0 7000 9.02 7.97 10.5 32.65 -6.7 -7.2
2018-10-13 22:00:00 11.5 11.2 12.1 0 7000 8.4 7.89 8.97 33.65 -6.7 -7
2018-10-13 23:00:00 10.9 10.6 11.3 0 6992 8.2 7.83 8.62 35.18 -6.3 -6.8
2018-10-14 00:00:00 10.4 10.1 10.6 0 6982 8.29 6.84 8.78 35.51 -6.2 -6.6
2018-10-14 01:00:00 10 9.8 10.3 0 6972 6.47 5.86 7.6 40.78 -5.9 -6.4
2018-10-14 02:00:00 9.5 9.4 9.7 0 6962 7.68 7.58 7.9 38.3 -5.7 -6
2018-10-14 03:00:00 9.2 9 9.4 0 6932 7.19 6.77 7.78 39.97 -5.6 -5.8
2018-10-14 04:00:00 8.9 8.8 9.1 0 6904 7.26 7.07 7.56 40.72 -5.2 -5.5
2018-10-14 05:00:00 8.7 8.5 8.9 0 6884 6.32 5.75 7.12 43.86 -5.1 -5.4
2018-10-14 06:00:00 8.4 8.3 8.6 0 6884 6.24 5.83 6.5 44.72 -4.9 -5.2
2018-10-14 07:00:00 8.2 8.1 8.4 0 6894 6.32 6.12 6.85 45.25 -4.6 -5
2018-10-14 08:00:00 8.1 8.1 8.2 0 6942 9.13 7.26 10.98 39.83 -3.9 -4.5
2018-10-14 09:00:00 8.3 8.1 8.5 0 7118 12.69 11.22 14.15 34.34 -2.7 -3.8
2018-10-14 10:00:00 8.8 8.5 9.1 0 7352 15.97 14.26 17.27 31.37 -1.1 -2.1
2018-10-14 11:00:00 10 9.2 11.1 0 7342 18.25 17.29 19.15 29.84 0.1 -0.9
2018-10-14 12:00:00 12.3 11.2 13.5 0 7342 20.35 19.65 21.24 24.77 -0.5 -1.3
2018-10-14 13:00:00 14.6 13.7 15.6 0 7342 22 21.32 22.5 20.91 -1.4 -1.8
2018-10-14 14:00:00 16.4 15.8 17.1 0 7342 22.49 22.25 22.71 21.39 -0.8 -1.5
2018-10-14 15:00:00 17.6 17.2 17.8 0 7166 22.19 21.92 22.41 23.6 0.1 -0.4
2018-10-14 16:00:00 17 16.6 17.6 0 7324 21.01 20.61 21.25 25.87 0.4 0
2018-10-14 17:00:00 16 15.6 16.5 0 7332 19.95 19.27 20.6 28.44 0.8 0.4
2018-10-14 18:00:00 15.2 14.9 15.6 0 7040 17.4 15.92 18.97 33.43 0.9 0.7
2018-10-14 19:00:00 14.3 13.8 14.8 0 7020 14.44 12.85 15.47 38.03 0.1 -0.4
2018-10-14 20:00:00 13.4 13 14 0 7020 12.09 11.23 12.8 41.6 -0.6 -1.2
2018-10-14 21:00:00 12.7 12.4 13 0 7000 11.02 10.23 12.67 41.6 -1.6 -2.4
2018-10-14 22:00:00 12 11.7 12.3 0 7000 11.03 10.57 11.74 39.46 -2.2 -2.6
2018-10-14 23:00:00 11.5 11.2 11.8 0 6992 9.66 8.83 10.59 40.11 -3.3 -5.3
2018-10-15 00:00:00 11 10.7 11.3 0 6982 8.92 8.21 9.33 32.18 -6.9 -7.5
2018-10-15 01:00:00 10.5 10.4 10.7 0 6962 8.71 7.92 9.18 27.52 -9.1 -10.4
2018-10-15 02:00:00 10.2 10 10.4 0 6962 8.23 7.58 8.82 8.39 0
2018-10-15 03:00:00 9.8 9.8 10.1 0 6932 8.87 8.26 9.19 4.77 -30.3 -31.2
2018-10-15 04:00:00 9.6 9.4 9.8 0 6922 8.62 8.33 8.85 5.33 -29.9 -34.3
2018-10-15 05:00:00 9.3 9.2 9.6 0 6922 7.75 7.51 8.23 0.67 0
2018-10-15 06:00:00 9.1 9 9.2 0 6894 7.44 7.09 7.75 0 0 0
2018-10-15 07:00:00 8.9 8.8 9.1 0 6904 7.56 7.29 8.18 0 0 0
2018-10-15 08:00:00 8.8 8.7 8.9 0 6952 10.16 8.49 11.96 0 0 0
2018-10-15 09:00:00 9 8.9 9.3 0 7098 14.2 12.45 15.71 12.72 -6 0
2018-10-15 10:00:00 9.5 9.3 9.9 0 7342 17.24 16.24 18.7 26.54 -2.3 -4.8
2018-10-15 11:00:00 10.7 10 11.7 0 7342 19.6 18.41 21.11 27.84 0.3 -0.3
2018-10-15 12:00:00 13 12 14.3 0 7342 21.79 20.97 22.22 25.07 0.6 0.2
2018-10-15 13:00:00 15.3 14.4 16.2 0 7342 23.12 22.31 23.64 22.2 0.1 -0.5
2018-10-15 14:00:00 17 16.4 17.6 0 7342 23.9 23.38 24.35 19.87 -0.6 -1.5